Time;durP1;ratioP1;P1;durP2;ratioP2;P2;SDS_P1;SDS_P2;PMS_P1;PMS_P2;Temp;Humidity;BMP_temperature;BMP_pressure;BME280_temperature;BME280_humidity;BME280_pressure;Samples;Min_cycle;Max_cycle;Signal;HPM_P1;HPM_P2
2021/12/07 00:00:28;;;;;;;14.15;8.43;;;0.10;99.90;;;;;;5027017;28;20040;-85
2021/12/07 00:02:54;;;;;;;15.65;8.20;;;0.00;99.90;;;;;;5041715;28;20105;-83
2021/12/07 00:05:20;;;;;;;14.85;8.95;;;0.00;99.90;;;;;;5043746;28;20092;-83
2021/12/07 00:07:46;;;;;;;14.38;8.55;;;0.00;99.90;;;;;;5029826;28;20053;-84
2021/12/07 00:10:14;;;;;;;14.02;8.43;;;0.00;99.90;;;;;;5023086;28;20036;-83
2021/12/07 00:12:42;;;;;;;11.15;7.25;;;0.00;99.90;;;;;;5003712;28;20390;-83
2021/12/07 00:15:10;;;;;;;12.18;7.65;;;0.00;99.90;;;;;;5006203;28;20022;-84
2021/12/07 00:17:36;;;;;;;15.77;9.60;;;0.00;99.90;;;;;;5021385;28;20018;-85
2021/12/07 00:20:07;;;;;;;15.25;9.20;;;-0.10;99.90;;;;;;5005567;28;20098;-85
2021/12/07 00:22:34;;;;;;;14.77;8.82;;;-0.10;99.90;;;;;;5012689;28;20545;-83
2021/12/07 00:24:59;;;;;;;15.77;9.93;;;-0.20;99.90;;;;;;5024125;28;20033;-80
2021/12/07 00:27:25;;;;;;;15.27;9.13;;;-0.20;99.90;;;;;;5004782;28;20355;-83
2021/12/07 00:29:51;;;;;;;13.07;9.10;;;-0.20;99.90;;;;;;5039093;28;20198;-83
2021/12/07 00:35:13;;;;;;;13.77;7.95;;;-0.30;99.90;;;;;;5037545;28;20026;-83
2021/12/07 00:37:41;;;;;;;13.35;7.75;;;-0.30;99.90;;;;;;5000445;28;20026;-82
2021/12/07 00:40:10;;;;;;;14.68;7.72;;;-0.20;99.90;;;;;;5023835;28;20026;-82
2021/12/07 00:42:36;;;;;;;11.93;7.57;;;-0.20;99.90;;;;;;5024335;28;20021;-82
2021/12/07 00:45:04;;;;;;;11.98;7.50;;;-0.10;99.90;;;;;;5024056;28;20121;-84
2021/12/07 00:47:30;;;;;;;11.25;7.53;;;-0.10;99.90;;;;;;5036263;28;20025;-83
2021/12/07 00:49:56;;;;;;;14.05;8.73;;;0.00;99.90;;;;;;5034763;28;20033;-83
2021/12/07 00:52:23;;;;;;;12.18;8.32;;;0.10;99.90;;;;;;5019556;28;20261;-83
2021/12/07 00:54:49;;;;;;;10.75;6.78;;;0.20;99.90;;;;;;5027331;28;20017;-82
2021/12/07 00:57:15;;;;;;;13.05;7.45;;;0.30;99.90;;;;;;5013152;28;20113;-82
2021/12/07 00:59:41;;;;;;;11.35;6.60;;;0.40;99.90;;;;;;5025897;28;20042;-82
2021/12/07 01:02:07;;;;;;;11.32;6.20;;;0.40;99.90;;;;;;5030994;28;20060;-80
2021/12/07 01:04:33;;;;;;;9.45;6.30;;;0.40;99.90;;;;;;5053620;28;20041;-82
2021/12/07 01:25:43;;;;;;;7.40;4.45;;;0.40;99.90;;;;;;5023992;28;20032;-82
2021/12/07 01:28:25;;;;;;;7.22;4.57;;;0.40;99.90;;;;;;5025241;28;20105;-84
2021/12/07 01:31:01;;;;;;;6.05;3.90;;;0.30;99.90;;;;;;5025438;28;20022;-81
2021/12/07 01:44:20;;;;;;;4.40;2.72;;;0.40;99.90;;;;;;5022066;28;20525;-84
2021/12/07 01:50:03;;;;;;;4.93;2.47;;;0.30;99.90;;;;;;5039642;28;20041;-83
2021/12/07 02:00:32;;;;;;;3.65;2.03;;;0.60;99.90;;;;;;5032150;28;20486;-84
2021/12/07 02:02:58;;;;;;;3.45;1.80;;;0.70;99.90;;;;;;5016499;28;20029;-83
2021/12/07 02:05:24;;;;;;;2.92;1.80;;;0.70;99.90;;;;;;5044038;28;20060;-84
2021/12/07 02:07:50;;;;;;;2.80;1.85;;;0.70;99.90;;;;;;5044536;28;20068;-82
2021/12/07 02:10:20;;;;;;;1.90;1.55;;;0.80;99.90;;;;;;5043058;28;20076;-84
2021/12/07 02:12:48;;;;;;;3.88;1.63;;;0.80;99.90;;;;;;5040155;28;20026;-84
2021/12/07 02:15:21;;;;;;;2.33;1.55;;;0.80;99.90;;;;;;5007510;28;20022;-83
2021/12/07 02:17:47;;;;;;;;;;;0.90;99.90;;;;;;5025628;28;20366;-83
2021/12/07 02:20:14;;;;;;;3.60;1.40;;;0.90;99.90;;;;;;5015999;28;19908;-85
2021/12/07 02:22:40;;;;;;;2.03;1.38;;;0.90;99.90;;;;;;5030067;28;20037;-83
2021/12/07 02:25:09;;;;;;;1.58;1.40;;;1.00;99.90;;;;;;5005736;28;20427;-83
2021/12/07 02:27:35;;;;;;;0.93;0.80;;;1.00;99.90;;;;;;5001235;28;20085;-80
2021/12/07 02:30:01;;;;;;;1.88;1.30;;;1.00;99.90;;;;;;5033586;28;20049;-80
2021/12/07 02:32:27;;;;;;;2.90;1.42;;;1.10;99.70;;;;;;5019915;28;20097;-80
2021/12/07 02:34:59;;;;;;;2.88;1.00;;;1.00;99.30;;;;;;5054879;28;20029;-79
2021/12/07 02:37:29;;;;;;;1.23;1.10;;;1.00;99.30;;;;;;5055254;28;20029;-81
2021/12/07 02:39:57;;;;;;;1.02;0.73;;;1.00;99.30;;;;;;5053980;28;20052;-81
2021/12/07 02:42:24;;;;;;;1.88;0.82;;;1.00;99.00;;;;;;5051516;28;20051;-81
2021/12/07 02:44:50;;;;;;;1.67;0.70;;;0.90;99.20;;;;;;5024343;28;20056;-83
2021/12/07 02:47:17;;;;;;;0.77;0.70;;;0.90;99.10;;;;;;5021174;28;20061;-81
2021/12/07 02:49:43;;;;;;;1.33;1.02;;;0.90;99.20;;;;;;5024515;28;20041;-84
2021/12/07 02:52:10;;;;;;;2.13;1.15;;;0.80;99.20;;;;;;5043797;28;20025;-80
2021/12/07 02:54:43;;;;;;;0.70;0.57;;;0.80;99.40;;;;;;5048090;28;20029;-82
2021/12/07 02:57:10;;;;;;;2.97;1.20;;;0.80;99.70;;;;;;5025811;28;20025;-84
2021/12/07 02:59:46;;;;;;;1.27;0.80;;;0.90;99.80;;;;;;5026066;28;20060;-83
2021/12/07 03:02:14;;;;;;;1.20;0.85;;;0.90;99.60;;;;;;5006765;28;20030;-84
2021/12/07 03:04:50;;;;;;;1.70;1.00;;;0.90;99.30;;;;;;5021493;28;20049;-82
2021/12/07 03:07:38;;;;;;;1.88;1.05;;;1.00;99.30;;;;;;5044042;28;20056;-83
2021/12/07 03:26:16;;;;;;;2.50;1.55;;;1.10;98.90;;;;;;5041244;28;20037;-83
2021/12/07 03:28:50;;;;;;;1.73;1.33;;;1.00;99.50;;;;;;5028310;28;20026;-82
2021/12/07 03:31:17;;;;;;;2.42;0.93;;;1.00;99.90;;;;;;5013608;28;20010;-82
2021/12/07 03:33:43;;;;;;;3.55;1.77;;;1.00;99.90;;;;;;5024912;28;21908;-84
2021/12/07 03:36:11;;;;;;;1.45;1.33;;;0.90;99.90;;;;;;5025482;28;20099;-84
2021/12/07 03:38:39;;;;;;;3.13;2.15;;;0.90;99.90;;;;;;5003739;28;20026;-83
2021/12/07 03:41:05;;;;;;;2.10;1.60;;;0.80;99.90;;;;;;5003582;28;20025;-83
2021/12/07 03:43:32;;;;;;;2.17;1.70;;;0.80;99.90;;;;;;5035025;28;20033;-85
2021/12/07 03:45:58;;;;;;;3.05;1.92;;;0.70;99.90;;;;;;5023372;28;20037;-79
2021/12/07 03:48:24;;;;;;;2.33;1.48;;;0.70;99.90;;;;;;5024520;28;20493;-84
2021/12/07 03:50:50;;;;;;;3.22;2.03;;;0.70;99.90;;;;;;5014639;28;20022;-84
2021/12/07 03:53:15;;;;;;;2.58;1.52;;;0.70;99.90;;;;;;5024074;28;20025;-83
2021/12/07 03:55:42;;;;;;;2.20;1.63;;;0.60;99.90;;;;;;5043008;28;20025;-82
2021/12/07 03:58:08;;;;;;;2.40;1.40;;;0.60;99.90;;;;;;5008641;28;20454;-83
2021/12/07 04:00:37;;;;;;;2.60;1.55;;;0.60;99.90;;;;;;5030299;28;20036;-83
2021/12/07 04:03:07;;;;;;;1.77;1.20;;;0.60;99.90;;;;;;5027606;28;20048;-83
2021/12/07 04:05:34;;;;;;;1.20;1.10;;;0.60;99.90;;;;;;5028682;28;20096;-82
2021/12/07 04:07:59;;;;;;;1.63;1.30;;;0.60;99.90;;;;;;5043660;28;20026;-82
2021/12/07 04:10:26;;;;;;;2.20;1.40;;;0.60;99.90;;;;;;5028514;28;20533;-83
2021/12/07 04:12:52;;;;;;;1.98;1.48;;;0.60;99.90;;;;;;5029247;28;20018;-81
2021/12/07 04:15:19;;;;;;;1.10;1.00;;;0.60;99.90;;;;;;5019016;28;20021;-84
2021/12/07 04:17:45;;;;;;;1.38;1.27;;;0.60;99.90;;;;;;5026826;28;20311;-82
2021/12/07 04:20:15;;;;;;;1.75;1.40;;;0.60;99.90;;;;;;5032946;28;20044;-82
2021/12/07 04:22:41;;;;;;;1.92;1.35;;;0.60;99.90;;;;;;5023809;22;20127;-78
2021/12/07 04:25:09;;;;;;;2.05;1.75;;;0.60;99.90;;;;;;5035621;28;20073;-79
2021/12/07 04:27:38;;;;;;;1.70;1.30;;;0.60;99.90;;;;;;5039188;28;20038;-80
2021/12/07 04:30:07;;;;;;;2.78;1.20;;;0.60;99.90;;;;;;5006716;28;20053;-79
2021/12/07 04:32:33;;;;;;;1.13;0.88;;;0.60;99.90;;;;;;5024773;28;20025;-78
2021/12/07 04:34:59;;;;;;;2.88;1.50;;;0.60;99.90;;;;;;5052552;28;20044;-79
2021/12/07 04:37:24;;;;;;;1.55;1.05;;;0.60;99.90;;;;;;5065639;28;20101;-79
2021/12/07 04:39:50;;;;;;;2.55;1.10;;;0.60;99.90;;;;;;5058018;28;20029;-80
2021/12/07 04:42:16;;;;;;;0.80;0.80;;;0.70;99.90;;;;;;5028370;28;20036;-79
2021/12/07 04:44:50;;;;;;;1.88;0.80;;;0.70;99.90;;;;;;5032199;28;20037;-77
2021/12/07 04:47:24;;;;;;;1.17;1.10;;;0.70;99.90;;;;;;5042150;28;20485;-79
2021/12/07 04:58:02;;;;;;;1.35;0.90;;;0.60;99.90;;;;;;5029248;28;20139;-78
2021/12/07 05:00:28;;;;;;;2.75;1.00;;;0.70;99.90;;;;;;5012897;28;20045;-78
2021/12/07 05:03:02;;;;;;;1.27;1.00;;;0.70;99.90;;;;;;5035911;28;20041;-80
2021/12/07 05:05:33;;;;;;;0.82;0.82;;;0.60;99.90;;;;;;5017718;28;20149;-78
2021/12/07 05:08:02;;;;;;;3.55;1.00;;;0.70;99.90;;;;;;5036435;28;20029;-78
2021/12/07 05:10:31;;;;;;;1.00;0.95;;;0.70;99.90;;;;;;5037797;28;20014;-78
2021/12/07 05:34:45;;;;;;;1.10;1.00;;;1.00;99.90;;;;;;5023923;28;20072;-77
2021/12/07 05:39:57;;;;;;;2.88;0.60;;;1.10;99.90;;;;;;5043972;28;20137;-78
2021/12/07 05:42:23;;;;;;;0.95;0.70;;;1.10;99.90;;;;;;5032755;28;20030;-78
2021/12/07 05:44:51;;;;;;;1.27;0.73;;;1.10;99.90;;;;;;5021741;28;20026;-77
2021/12/07 05:47:17;;;;;;;1.77;0.88;;;1.10;99.90;;;;;;5019719;28;20050;-77
2021/12/07 05:49:44;;;;;;;0.65;0.63;;;1.10;99.90;;;;;;5017520;28;20082;-76
2021/12/07 05:52:10;;;;;;;1.60;0.60;;;1.10;99.90;;;;;;5024267;28;20064;-76
2021/12/07 05:54:36;;;;;;;0.50;0.50;;;1.10;99.90;;;;;;5026046;28;20017;-77
2021/12/07 05:57:04;;;;;;;0.68;0.65;;;1.10;99.90;;;;;;5032944;28;20048;-78
2021/12/07 05:59:29;;;;;;;1.13;0.80;;;1.10;99.90;;;;;;5021393;28;20401;-78
2021/12/07 06:01:55;;;;;;;0.75;0.63;;;1.10;99.90;;;;;;5037532;28;20034;-79
2021/12/07 06:04:21;;;;;;;0.70;0.70;;;1.10;99.90;;;;;;5017436;28;20030;-80
2021/12/07 06:06:47;;;;;;;1.60;1.38;;;1.20;99.90;;;;;;5038205;28;20037;-78
2021/12/07 06:09:12;;;;;;;0.82;0.80;;;1.20;99.90;;;;;;5038871;28;20090;-78
2021/12/07 06:11:54;;;;;;;;;;;;;;;;;;;;;
2021/12/07 06:14:28;;;;;;;0.60;0.60;;;1.20;99.90;;;;;;5038736;28;20163;-78
2021/12/07 06:16:54;;;;;;;1.58;0.90;;;1.20;99.90;;;;;;5038220;28;20072;-77
2021/12/07 06:19:20;;;;;;;2.80;0.95;;;1.20;99.90;;;;;;5019653;28;20432;-78
2021/12/07 06:21:46;;;;;;;1.73;0.80;;;1.20;99.90;;;;;;5031801;28;20041;-78
2021/12/07 06:24:11;;;;;;;1.98;1.08;;;1.20;99.90;;;;;;5052915;28;20021;-78
2021/12/07 06:26:37;;;;;;;1.90;0.88;;;1.30;99.90;;;;;;5044372;28;20029;-77
2021/12/07 06:29:04;;;;;;;2.05;0.75;;;1.30;99.90;;;;;;5027422;28;20033;-78
2021/12/07 06:31:29;;;;;;;4.47;0.93;;;1.30;99.90;;;;;;5017435;28;20079;-77
2021/12/07 06:33:58;;;;;;;0.85;0.85;;;1.30;99.90;;;;;;5018827;28;20466;-78
2021/12/07 06:36:24;;;;;;;1.48;1.13;;;1.40;99.90;;;;;;5035507;28;20029;-79
2021/12/07 06:38:50;;;;;;;0.60;0.60;;;1.50;99.90;;;;;;5022987;28;20101;-79
2021/12/07 06:41:17;;;;;;;1.45;0.75;;;1.50;99.90;;;;;;5020998;28;20082;-80
2021/12/07 06:43:43;;;;;;;1.98;0.90;;;1.50;99.90;;;;;;5038131;28;20082;-80
2021/12/07 06:46:09;;;;;;;1.00;0.90;;;1.60;99.90;;;;;;5019931;28;20759;-77
2021/12/07 06:48:34;;;;;;;2.80;1.35;;;1.60;99.90;;;;;;5010019;28;20505;-78
2021/12/07 06:51:01;;;;;;;2.20;1.13;;;1.60;99.90;;;;;;5018651;28;20033;-79
2021/12/07 06:53:29;;;;;;;3.85;1.75;;;1.60;99.90;;;;;;5011428;28;20025;-78
2021/12/07 06:55:55;;;;;;;2.00;1.65;;;1.60;99.90;;;;;;5015980;28;20497;-77
2021/12/07 06:58:21;;;;;;;2.95;1.45;;;1.60;99.90;;;;;;5036918;28;20025;-77
2021/12/07 07:00:47;;;;;;;2.47;1.35;;;1.60;99.90;;;;;;5034656;28;20089;-77
2021/12/07 07:03:12;;;;;;;6.03;1.40;;;1.70;99.90;;;;;;5018063;28;20026;-78
2021/12/07 07:05:38;;;;;;;2.58;1.90;;;1.80;99.90;;;;;;5002720;28;20376;-77
2021/12/07 07:08:04;;;;;;;2.53;1.10;;;1.80;99.90;;;;;;5019526;28;20037;-77
2021/12/07 07:10:30;;;;;;;3.53;1.17;;;1.80;99.90;;;;;;5038991;28;20037;-78
2021/12/07 07:12:56;;;;;;;2.45;1.20;;;1.90;99.90;;;;;;5019605;28;20029;-78
2021/12/07 07:15:22;;;;;;;2.05;1.27;;;1.80;99.90;;;;;;5018911;28;20029;-77
2021/12/07 07:17:48;;;;;;;4.78;2.17;;;1.90;99.90;;;;;;5021113;28;20033;-78
2021/12/07 07:20:16;;;;;;;3.03;1.40;;;2.00;99.90;;;;;;5019670;28;20105;-77
2021/12/07 07:22:42;;;;;;;3.15;1.48;;;2.00;99.90;;;;;;5020620;28;20083;-78
2021/12/07 07:25:09;;;;;;;4.75;1.48;;;2.00;99.90;;;;;;5025958;28;20034;-77
2021/12/07 07:27:35;;;;;;;2.33;1.40;;;2.10;99.90;;;;;;5014061;28;20025;-78
2021/12/07 07:30:00;;;;;;;3.38;1.08;;;2.10;99.90;;;;;;5038786;28;20028;-78
2021/12/07 07:32:26;;;;;;;4.05;1.27;;;2.10;99.90;;;;;;5020305;28;20032;-78
2021/12/07 07:34:52;;;;;;;3.13;1.48;;;2.20;99.90;;;;;;5030894;28;20026;-77
2021/12/07 07:37:18;;;;;;;3.90;1.40;;;2.20;99.90;;;;;;5018961;28;20076;-78
2021/12/07 07:39:43;;;;;;;1.90;1.17;;;2.30;99.90;;;;;;5020311;28;20034;-78
2021/12/07 07:42:10;;;;;;;2.35;1.17;;;2.40;99.90;;;;;;5034132;28;20040;-78
2021/12/07 07:44:36;;;;;;;2.45;1.23;;;2.40;99.90;;;;;;5017708;28;20030;-79
2021/12/07 07:47:02;;;;;;;3.70;1.40;;;2.40;99.90;;;;;;5021541;28;20029;-79
2021/12/07 07:49:28;;;;;;;2.10;1.30;;;2.50;99.90;;;;;;5035594;28;20401;-77
2021/12/07 07:51:54;;;;;;;4.78;1.55;;;2.60;99.90;;;;;;5029969;28;20021;-78
2021/12/07 07:54:20;;;;;;;5.00;1.30;;;2.60;99.90;;;;;;5022986;28;20026;-78
2021/12/07 07:56:45;;;;;;;4.68;1.50;;;2.60;99.90;;;;;;5002538;28;20041;-78
2021/12/07 07:59:11;;;;;;;3.28;1.00;;;2.60;99.90;;;;;;5031327;28;20053;-76
2021/12/07 08:01:37;;;;;;;2.30;1.27;;;2.60;99.90;;;;;;5020279;28;20029;-77
2021/12/07 08:04:04;;;;;;;1.60;0.98;;;2.60;99.90;;;;;;5034269;28;20064;-77
2021/12/07 08:06:30;;;;;;;1.58;1.38;;;2.60;99.90;;;;;;5034965;28;20026;-81
2021/12/07 08:09:16;;;;;;;1.83;1.60;;;2.60;99.90;;;;;;5037048;28;20026;-79
2021/12/07 08:11:42;;;;;;;3.17;1.42;;;2.60;99.90;;;;;;5007544;28;20042;-78
2021/12/07 08:14:07;;;;;;;1.10;1.00;;;2.50;99.90;;;;;;5036220;28;20032;-78
2021/12/07 08:16:34;;;;;;;3.65;1.58;;;2.50;99.90;;;;;;5037621;28;20021;-78
2021/12/07 08:19:01;;;;;;;1.95;1.52;;;2.40;99.90;;;;;;5037723;28;20057;-77
2021/12/07 08:21:27;;;;;;;2.95;1.15;;;2.30;99.90;;;;;;5018594;28;20117;-78
2021/12/07 08:23:53;;;;;;;3.15;1.42;;;2.20;99.90;;;;;;5027182;28;20052;-77
2021/12/07 08:26:21;;;;;;;2.00;1.08;;;2.20;99.90;;;;;;5006379;28;20044;-78
2021/12/07 08:28:47;;;;;;;2.97;1.58;;;2.20;99.90;;;;;;5034854;28;20449;-78
2021/12/07 08:31:13;;;;;;;3.35;1.40;;;2.20;99.90;;;;;;5012961;28;20045;-78
2021/12/07 08:33:39;;;;;;;2.78;2.13;;;2.10;99.90;;;;;;5015910;28;20025;-79
2021/12/07 08:36:05;;;;;;;2.97;1.77;;;2.20;99.90;;;;;;5016329;28;20030;-79
2021/12/07 08:38:31;;;;;;;4.53;1.80;;;2.20;99.90;;;;;;5016138;28;20030;-78
2021/12/07 08:40:57;;;;;;;4.47;1.35;;;2.30;99.90;;;;;;4997233;28;20022;-75
2021/12/07 08:43:28;;;;;;;4.75;1.20;;;2.40;99.90;;;;;;5023705;28;20026;-78
2021/12/07 08:45:56;;;;;;;7.93;1.65;;;2.50;99.90;;;;;;5015367;28;20502;-77
2021/12/07 08:48:23;;;;;;;4.38;1.58;;;2.60;99.90;;;;;;5015499;28;20113;-77
2021/12/07 08:50:49;;;;;;;2.60;1.25;;;2.70;99.90;;;;;;5029442;28;20025;-77
2021/12/07 08:53:17;;;;;;;1.70;1.23;;;2.80;99.90;;;;;;5022951;28;20535;-78
2021/12/07 09:01:22;;;;;;;3.28;1.90;;;3.00;99.90;;;;;;5028242;28;20040;-77
2021/12/07 09:03:49;;;;;;;2.47;1.30;;;3.10;99.90;;;;;;5027014;28;20081;-77
2021/12/07 09:06:15;;;;;;;1.42;1.13;;;3.20;99.90;;;;;;5025441;28;20093;-77
2021/12/07 09:08:42;;;;;;;2.47;1.38;;;3.30;99.90;;;;;;5004398;28;20026;-77
2021/12/07 09:11:10;;;;;;;2.08;1.38;;;3.40;99.90;;;;;;4998283;28;20022;-78
2021/12/07 09:13:37;;;;;;;2.40;1.20;;;3.50;99.90;;;;;;5038699;28;20161;-79
2021/12/07 09:16:04;;;;;;;1.52;1.23;;;3.60;99.90;;;;;;5045167;28;20022;-79
2021/12/07 09:18:31;;;;;;;4.70;2.08;;;3.60;99.90;;;;;;5039851;28;20625;-79
2021/12/07 09:20:58;;;;;;;5.38;1.83;;;3.60;99.90;;;;;;5044398;28;20040;-78
2021/12/07 09:23:24;;;;;;;4.43;1.58;;;3.50;99.90;;;;;;5038022;28;20067;-78
2021/12/07 09:25:51;;;;;;;2.70;1.60;;;3.30;99.90;;;;;;5006639;28;20022;-80
2021/12/07 09:28:17;;;;;;;2.50;1.92;;;3.20;99.90;;;;;;5038833;28;20037;-80
2021/12/07 09:30:50;;;;;;;3.83;1.50;;;3.00;99.90;;;;;;5049209;28;20105;-80
2021/12/07 09:33:24;;;;;;;4.00;1.58;;;2.90;99.90;;;;;;5028542;28;20025;-80
2021/12/07 09:35:59;;;;;;;3.38;1.67;;;2.80;99.90;;;;;;5029927;28;20037;-81
2021/12/07 09:38:25;;;;;;;4.60;1.40;;;2.70;99.90;;;;;;5006822;28;20117;-80
2021/12/07 09:40:53;;;;;;;5.07;2.25;;;3.00;99.90;;;;;;5042845;28;20036;-78
2021/12/07 09:43:19;;;;;;;7.47;1.70;;;3.20;99.90;;;;;;5029171;28;20026;-79
2021/12/07 09:45:45;;;;;;;4.93;1.88;;;3.20;99.90;;;;;;5047432;28;20036;-79
2021/12/07 09:48:12;;;;;;;2.35;1.25;;;3.20;99.90;;;;;;5034921;28;20021;-78
2021/12/07 09:50:42;;;;;;;1.88;1.42;;;3.20;99.90;;;;;;5024174;28;20037;-78
2021/12/07 09:53:13;;;;;;;3.50;1.63;;;3.30;99.90;;;;;;5034275;28;20105;-79
2021/12/07 09:55:40;;;;;;;3.25;1.50;;;3.60;99.90;;;;;;5032475;28;20014;-79
2021/12/07 09:58:06;;;;;;;2.15;1.52;;;3.70;99.90;;;;;;5010647;28;20068;-79
2021/12/07 10:00:33;;;;;;;3.67;1.70;;;4.00;99.90;;;;;;5017765;28;20043;-80
2021/12/07 10:02:59;;;;;;;4.00;1.73;;;4.00;99.90;;;;;;5048380;28;20397;-80
2021/12/07 10:05:30;;;;;;;2.58;1.45;;;4.10;99.90;;;;;;5027120;28;20034;-80
2021/12/07 10:07:57;;;;;;;3.53;1.75;;;4.20;99.90;;;;;;5045776;28;20068;-80
2021/12/07 10:10:27;;;;;;;2.58;1.48;;;4.40;99.90;;;;;;5027788;28;20025;-79
2021/12/07 10:12:52;;;;;;;4.00;1.52;;;4.50;99.90;;;;;;5021382;28;20105;-80
2021/12/07 10:15:19;;;;;;;6.30;2.42;;;4.60;97.90;;;;;;5020199;28;20029;-80
2021/12/07 10:18:22;;;;;;;7.05;1.33;;;4.50;98.90;;;;;;5030452;28;20029;-79
2021/12/07 10:20:55;;;;;;;;;;;4.40;99.90;;;;;;5027748;28;20030;-80
2021/12/07 10:23:21;;;;;;;2.47;1.40;;;4.40;99.90;;;;;;5023111;28;20638;-79
2021/12/07 10:26:16;;;;;;;;;;;;;;;;;;;;;
2021/12/07 10:28:44;;;;;;;3.83;1.20;;;4.40;96.60;;;;;;5041329;28;20057;-80
2021/12/07 10:31:09;;;;;;;1.88;1.10;;;4.50;99.90;;;;;;5045985;28;20025;-79
2021/12/07 10:33:45;;;;;;;3.90;1.40;;;4.50;99.90;;;;;;5036020;28;20025;-79
2021/12/07 10:36:22;;;;;;;4.63;1.08;;;4.60;97.90;;;;;;5019968;28;20141;-79
2021/12/07 10:39:21;;;;;;;2.72;1.33;;;4.70;97.50;;;;;;5020882;28;20021;-80
2021/12/07 10:41:59;;;;;;;3.38;1.48;;;4.70;96.70;;;;;;5003129;28;20029;-80
2021/12/07 10:44:27;;;;;;;7.32;2.15;;;4.60;98.70;;;;;;5041333;28;20243;-80
2021/12/07 10:46:59;;;;;;;4.15;1.42;;;4.70;98.60;;;;;;5041521;28;20029;-80
2021/12/07 10:49:33;;;;;;;8.13;1.45;;;4.80;98.70;;;;;;5039300;28;20029;-80
2021/12/07 10:52:22;;;;;;;2.28;1.23;;;5.00;95.40;;;;;;5037917;28;20029;-81
2021/12/07 10:55:10;;;;;;;2.17;0.90;;;5.10;94.80;;;;;;5025227;28;20040;-80
2021/12/07 10:57:58;;;;;;;3.42;1.48;;;5.10;95.30;;;;;;5007160;28;20026;-79
2021/12/07 11:00:25;;;;;;;4.78;1.20;;;5.30;94.40;;;;;;5030443;28;20029;-79
2021/12/07 11:03:02;;;;;;;4.28;1.27;;;5.60;93.20;;;;;;5047989;28;20033;-79
2021/12/07 11:05:31;;;;;;;2.40;1.50;;;5.80;92.70;;;;;;5053600;28;20006;-79
2021/12/07 11:08:00;;;;;;;3.70;2.08;;;5.90;92.00;;;;;;5047388;28;20442;-80
2021/12/07 11:10:30;;;;;;;3.67;1.30;;;5.90;91.40;;;;;;5035345;28;20037;-79
2021/12/07 11:13:11;;;;;;;2.92;1.55;;;5.70;90.60;;;;;;5025027;28;20049;-79
2021/12/07 11:15:59;;;;;;;5.13;1.75;;;5.60;90.80;;;;;;5024563;28;20018;-80
2021/12/07 11:18:31;;;;;;;2.42;1.00;;;5.60;90.10;;;;;;5007115;28;20049;-80
2021/12/07 11:21:01;;;;;;;4.45;1.30;;;5.40;90.30;;;;;;5029704;28;20029;-80
2021/12/07 11:23:39;;;;;;;4.95;1.30;;;5.30;90.20;;;;;;5035863;28;20033;-80
2021/12/07 11:31:36;;;;;;;3.03;1.35;;;5.40;90.10;;;;;;5020832;28;20045;-81
2021/12/07 11:37:12;;;;;;;1.30;0.82;;;5.40;88.40;;;;;;5012026;28;20038;-81
2021/12/07 11:39:51;;;;;;;3.65;1.17;;;5.30;87.50;;;;;;5005165;28;20030;-80
2021/12/07 11:42:39;;;;;;;2.28;1.30;;;5.20;88.40;;;;;;5006020;28;20040;-82
2021/12/07 11:45:16;;;;;;;4.13;1.33;;;5.20;89.50;;;;;;5022223;28;20157;-81
2021/12/07 11:47:47;;;;;;;3.90;1.10;;;5.20;90.00;;;;;;5020475;28;20038;-81
2021/12/07 11:50:36;;;;;;;6.70;1.20;;;5.20;88.40;;;;;;5020774;28;20109;-81
2021/12/07 11:53:09;;;;;;;2.53;1.05;;;5.10;88.30;;;;;;5011518;28;20028;-81
2021/12/07 11:55:37;;;;;;;5.05;1.60;;;5.00;89.30;;;;;;5035724;28;20025;-80
2021/12/07 11:58:06;;;;;;;2.60;1.20;;;5.00;89.90;;;;;;5040647;28;20052;-81
2021/12/07 12:00:41;;;;;;;2.70;1.30;;;5.10;89.60;;;;;;5025601;28;20021;-81
2021/12/07 12:03:11;;;;;;;5.53;0.93;;;5.10;88.90;;;;;;5043355;28;20034;-81
2021/12/07 12:05:40;;;;;;;3.30;1.23;;;5.00;88.40;;;;;;5028805;28;20034;-80
2021/12/07 12:08:58;;;;;;;1.65;1.30;;;5.00;88.80;;;;;;5029328;28;20057;-84
2021/12/07 12:11:49;;;;;;;5.07;1.40;;;5.00;89.50;;;;;;4933252;28;20425;-80
2021/12/07 12:14:42;;;;;;;2.40;1.35;;;5.00;89.60;;;;;;4999202;28;20225;-79
2021/12/07 12:17:38;;;;;;;5.03;1.25;;;5.10;90.20;;;;;;5016567;28;20030;-81
2021/12/07 12:20:28;;;;;;;4.03;1.63;;;5.20;88.30;;;;;;5007450;28;20030;-79
2021/12/07 12:23:29;;;;;;;4.57;1.20;;;5.30;87.50;;;;;;5016610;28;20234;-79
2021/12/07 12:26:25;;;;;;;3.85;1.30;;;5.20;88.10;;;;;;5019837;28;20010;-82
2021/12/07 12:29:24;;;;;;;4.53;1.65;;;5.00;88.50;;;;;;5028970;28;20014;-82
2021/12/07 12:31:58;;;;;;;4.05;1.40;;;4.80;89.90;;;;;;5008366;28;20045;-81
2021/12/07 12:34:29;;;;;;;2.78;0.90;;;4.70;90.10;;;;;;5003383;28;20226;-80
2021/12/07 12:36:56;;;;;;;5.40;1.83;;;4.70;90.10;;;;;;5023084;28;20030;-79
2021/12/07 12:39:40;;;;;;;2.58;1.20;;;4.80;90.00;;;;;;5023015;28;20029;-80
2021/12/07 12:42:07;;;;;;;4.70;1.65;;;4.90;89.80;;;;;;5023688;28;20026;-79
2021/12/07 12:44:37;;;;;;;3.88;1.30;;;5.20;89.70;;;;;;5023395;28;20032;-79
2021/12/07 12:47:05;;;;;;;2.88;1.05;;;5.50;88.10;;;;;;5005750;28;20033;-79
2021/12/07 12:49:39;;;;;;;5.95;1.45;;;5.60;87.70;;;;;;5004483;28;20029;-80
2021/12/07 12:52:06;;;;;;;3.63;1.52;;;5.70;85.30;;;;;;5003878;28;20022;-80
2021/12/07 12:54:41;;;;;;;4.72;1.63;;;5.50;84.90;;;;;;5021306;28;20029;-79
2021/12/07 12:57:17;;;;;;;3.15;1.35;;;5.40;85.50;;;;;;5021329;28;20050;-80
2021/12/07 12:59:47;;;;;;;10.60;1.50;;;5.30;85.00;;;;;;5021764;28;20041;-80
2021/12/07 13:02:13;;;;;;;4.57;1.52;;;5.20;84.60;;;;;;5003817;28;20026;-80
2021/12/07 13:04:40;;;;;;;3.85;1.05;;;5.10;84.80;;;;;;5020970;28;20437;-80
2021/12/07 13:09:45;;;;;;;6.13;1.48;;;5.00;85.10;;;;;;5020047;28;20095;-78
2021/12/07 13:12:23;;;;;;;3.10;1.63;;;5.00;86.10;;;;;;5020832;28;20499;-80
2021/12/07 13:14:49;;;;;;;2.83;1.33;;;5.20;87.20;;;;;;5022492;28;20041;-79
2021/12/07 13:17:35;;;;;;;4.13;1.20;;;5.50;84.00;;;;;;5022260;28;20367;-79
2021/12/07 13:20:12;;;;;;;2.35;0.98;;;5.50;82.50;;;;;;5000852;28;20033;-78
2021/12/07 13:22:48;;;;;;;3.15;1.55;;;5.40;82.80;;;;;;5026634;28;20030;-79
2021/12/07 13:25:25;;;;;;;4.55;1.20;;;5.30;83.90;;;;;;5023832;28;20112;-78
2021/12/07 13:28:03;;;;;;;5.50;1.63;;;5.30;83.50;;;;;;5019741;28;20480;-79
2021/12/07 13:30:46;;;;;;;3.03;1.65;;;5.30;82.60;;;;;;5039293;28;20036;-81
2021/12/07 13:33:18;;;;;;;6.72;1.42;;;5.20;82.50;;;;;;5041743;28;20017;-79
2021/12/07 13:35:44;;;;;;;4.68;1.55;;;5.00;83.60;;;;;;5040583;28;20049;-79
2021/12/07 13:38:23;;;;;;;6.65;1.70;;;4.90;84.50;;;;;;5042976;28;20021;-78
2021/12/07 13:40:52;;;;;;;6.32;1.92;;;4.90;84.80;;;;;;5027322;28;20045;-80
2021/12/07 13:43:35;;;;;;;4.93;1.30;;;4.70;85.20;;;;;;5041293;28;20428;-80
2021/12/07 13:46:08;;;;;;;4.07;1.75;;;4.50;86.70;;;;;;5042315;28;20026;-80
2021/12/07 13:48:34;;;;;;;5.75;1.58;;;4.40;87.20;;;;;;5023526;28;20036;-79
2021/12/07 13:51:00;;;;;;;2.60;1.13;;;4.30;88.10;;;;;;5040481;28;20022;-81
2021/12/07 13:53:26;;;;;;;4.57;1.10;;;4.30;89.10;;;;;;5030993;28;20026;-81
2021/12/07 13:55:52;;;;;;;2.17;1.20;;;4.30;88.90;;;;;;5028843;28;20180;-81
2021/12/07 13:58:18;;;;;;;3.13;1.00;;;4.30;88.60;;;;;;5048342;28;20040;-80
2021/12/07 14:00:44;;;;;;;3.45;1.45;;;4.40;88.50;;;;;;5048949;28;20033;-80
2021/12/07 14:03:15;;;;;;;3.03;1.10;;;4.40;88.70;;;;;;5064375;28;20026;-80
2021/12/07 14:05:44;;;;;;;5.20;1.38;;;4.40;89.10;;;;;;5032815;28;20048;-81
2021/12/07 14:08:14;;;;;;;4.45;1.00;;;4.50;88.90;;;;;;5023684;28;20021;-79
2021/12/07 14:10:49;;;;;;;3.78;1.38;;;4.50;89.00;;;;;;5014831;28;20037;-81
2021/12/07 14:13:16;;;;;;;3.67;1.60;;;4.60;89.20;;;;;;5027948;28;20029;-81
2021/12/07 14:15:45;;;;;;;4.72;1.58;;;4.60;88.40;;;;;;5033096;28;20037;-80
2021/12/07 14:18:15;;;;;;;3.78;1.42;;;4.60;88.30;;;;;;5037092;28;20037;-81
2021/12/07 14:21:06;;;;;;;2.35;0.90;;;4.70;87.50;;;;;;5042780;28;20066;-80
2021/12/07 14:23:42;;;;;;;4.10;1.33;;;4.60;87.70;;;;;;5025193;28;20022;-80
2021/12/07 14:26:16;;;;;;;3.00;0.80;;;4.50;87.90;;;;;;5041383;28;20045;-80
2021/12/07 14:28:41;;;;;;;4.18;1.15;;;4.40;88.10;;;;;;5025371;28;20126;-81
2021/12/07 14:31:16;;;;;;;3.20;1.10;;;4.30;88.60;;;;;;5043229;28;20017;-80
2021/12/07 14:33:48;;;;;;;5.90;1.35;;;4.10;89.30;;;;;;5042012;28;20022;-80
2021/12/07 14:36:18;;;;;;;2.38;0.88;;;4.00;89.40;;;;;;5043159;28;20024;-81
2021/12/07 14:38:47;;;;;;;3.25;0.98;;;3.90;90.00;;;;;;5031068;28;20021;-81
2021/12/07 14:41:14;;;;;;;4.18;1.20;;;3.90;90.20;;;;;;5006785;28;20502;-82
2021/12/07 14:43:41;;;;;;;4.35;1.10;;;3.80;89.90;;;;;;5005612;28;20044;-82
2021/12/07 14:46:11;;;;;;;5.13;1.30;;;3.70;90.10;;;;;;5025986;28;20024;-79
2021/12/07 14:48:38;;;;;;;2.60;1.10;;;3.70;90.30;;;;;;5041573;28;20040;-80
2021/12/07 14:51:10;;;;;;;5.45;1.40;;;3.60;90.50;;;;;;5035425;28;20025;-79
2021/12/07 14:53:42;;;;;;;2.33;1.40;;;3.60;90.40;;;;;;5025568;28;20053;-79
2021/12/07 14:56:13;;;;;;;2.67;1.00;;;3.60;90.40;;;;;;5002259;28;20038;-80
2021/12/07 14:58:40;;;;;;;1.58;1.02;;;3.50;90.50;;;;;;5021894;28;20026;-79
2021/12/07 15:01:31;;;;;;;3.95;1.10;;;3.40;90.70;;;;;;5020550;28;20025;-79